Havana, Cuba
Current Conditions -  °F | °C
As of 6:55 PM on Thursday 27 Nov 2014 (Local Time) from MUHA Reporting Station
Clear Clear  
Wind Chill: 68°   Ceiling: Unl
Heat Index: 68°   Visibility: 6mi
Dew Point: 50°   Wind: 16mph
Humidity: 52%   Direction: 20°NNE
Pressure: 30.18"   Gusts: 32mph
Location:  23.12°N, 82.39°W
Report Text: MUHA 272255Z 02014G28KT 350V050 9000 NSC 20/10 Q1022
Loading
Personal Weather Stations






























Interactive Weather Map New forecast layout! Learn more

10-Day Weather Forecast

Advertisements
Track Severe Weather on mobile